Aérodrome :
LOGIN :

S'inscrire | Disclaimer

   EN    FR    IT 

 










Légende :    VFR   VFR Marginal   IFR   IFR Intensif   IFR Très Intensif
Visi : 
Plafond : 
>= 8 km
>= 3000ft
5 à 8 km
1000 à 3000 ft
1500m à 5 km
500 à 1000 ft
800 à 1500m
200 à 500 ft
< 800m
< 200 ft
Symboles :   Orages  Brouillard  Fortes neiges  Fortes précipitations  Vent > 20 kt
SIGMETs :   Divers  Orages  Givrage  Turbulence  Onde Orograph.  Cendres Volcan.







- Altitude de l'aérodrome : 160 ft
- Code IATA : LRT
- Voir les cartes d'approche


LFRH - Lorient Lann Bihoue

DERNIER METAR :
  • 220000Z AUTO 26018KT 2200 DZ BR VV/// 12/12 Q1017 TEMPO 1000 DZ BCFG BECMG 26018G28KT

METARs EXPIRÉS :
  • 212330Z AUTO 26017KT 2700 DZ BR VV/// 12/12 Q1018 TEMPO 1000 DZ BCFG BECMG 26018G28KT
  • 212300Z AUTO 26016KT 4000 BR VV/// 12/12 Q1018 TEMPO 1000 DZ BCFG BECMG 26015G25KT
  • 212230Z AUTO 26016KT 2700 -DZ BR OVC002 12/12 Q1018 TEMPO 1000 DZ BCFG VV/// BECMG 26015G25KT
  • 212200Z AUTO 27017KT 2700 -DZ BR VV/// 12/12 Q1018 TEMPO 1000 DZ BCFG BECMG 26015G25KT
  • 212130Z AUTO 26014KT 2300 -DZ BR VV/// 12/12 Q1018 TEMPO 1000 DZ BCFG BECMG 26015G25KT

TAF TAF LFRH
Valide du 22 à 00h jusqu'au 23 à 00h UTC


212300Z 2200/2224 26018G28KT 2500 DZRA OVC002
TEMPO 2200/2204 1000 DZ BCFG VV///
BECMG 2204/2205 25020G40KT
BECMG 2206/2208 28025G45KT 9999 NSW BKN015 BKN025
BECMG 2210/2212 30012G22KT
BECMG 2214/2215 28008KT
TEMPO 2215/2218 SCT015
PROB30
TEMPO 2220/2222 5000 BR NSC
BECMG 2222/2224 21010KT 5000 RADZ BKN006 OVC015
Pas de NOTAMs connus pour ce terrain.



MET'MAP, la Météo Aéronautique d'un coup d'oeil ! - Copyright ORBIFLY Décembre 2007 - Disclaimer

ORBIFLY MET'MAP TEAM :

Programmation & Développement : Alexandra Zaïnal
Conception & Développement : Baudouin d'Aumeries
Co-Programmation & Développement : Marc-Olivier Méhu
Soutien technique & logistique : Manuel Goepfert

Contact : metmap@orbifly.com




SOURCES & CREDITS :

   NOAA